Time,TemperatureF,DewpointF,PressureIn,WindDirection,WindDirectionDegrees,WindSpeedMPH,WindSpeedGustMPH,Humidity,HourlyPrecipIn,Conditions,Clouds,dailyrainin,SoftwareType,DateUTC
2013-01-29 00:01:00,36.5,8.5,30.14,North,0,0.0,0.0,31,0.00,,,0.00,WUHU216HW,2013-01-29 08:01:00,
2013-01-29 00:07:00,36.4,7.7,30.14,North,0,0.0,0.0,30,0.00,,,0.00,WUHU216HW,2013-01-29 08:07:00,
2013-01-29 00:12:00,36.4,7.0,30.14,North,0,0.0,0.0,29,0.00,,,0.00,WUHU216HW,2013-01-29 08:12:00,
2013-01-29 00:17:00,36.7,7.2,30.14,North,0,0.0,0.0,29,0.00,,,0.00,WUHU216HW,2013-01-29 08:17:00,
2013-01-29 00:22:00,37.8,12.3,30.14,North,0,0.0,0.0,35,0.00,,,0.00,WUHU216HW,2013-01-29 08:22:00,
2013-01-29 00:27:00,38.0,13.2,30.14,North,0,0.0,0.0,36,0.00,,,0.00,WUHU216HW,2013-01-29 08:27:00,
2013-01-29 00:32:00,38.0,13.8,30.14,North,0,0.0,0.0,37,0.00,,,0.00,WUHU216HW,2013-01-29 08:32:00,
2013-01-29 00:37:00,38.0,13.1,30.14,North,0,0.0,0.0,36,0.00,,,0.00,WUHU216HW,2013-01-29 08:37:00,
2013-01-29 00:42:00,37.6,12.1,30.14,North,0,0.0,0.0,35,0.00,,,0.00,WUHU216HW,2013-01-29 08:42:00,
2013-01-29 00:47:00,37.4,12.6,30.14,North,0,0.0,0.0,36,0.00,,,0.00,WUHU216HW,2013-01-29 08:47:00,
2013-01-29 00:52:00,37.4,11.9,30.14,North,0,0.0,0.0,35,0.00,,,0.00,WUHU216HW,2013-01-29 08:52:00,
2013-01-29 00:58:00,36.9,10.8,30.14,North,0,0.0,0.0,34,0.00,,,0.00,WUHU216HW,2013-01-29 08:58:00,
2013-01-29 01:03:00,36.6,10.0,30.14,North,0,0.0,0.0,33,0.00,,,0.00,WUHU216HW,2013-01-29 09:03:00,
2013-01-29 01:08:00,36.4,9.1,30.13,North,0,0.0,0.0,32,0.00,,,0.00,WUHU216HW,2013-01-29 09:08:00,
2013-01-29 01:13:00,36.4,9.1,30.14,North,0,0.0,0.0,32,0.00,,,0.00,WUHU216HW,2013-01-29 09:13:00,
2013-01-29 01:18:00,36.1,8.9,30.14,North,0,0.0,0.0,32,0.00,,,0.00,WUHU216HW,2013-01-29 09:18:00,
2013-01-29 01:23:00,36.1,8.1,30.13,North,0,0.0,0.0,31,0.00,,,0.00,WUHU216HW,2013-01-29 09:23:00,
2013-01-29 01:28:00,36.1,8.1,30.13,North,0,0.0,0.0,31,0.00,,,0.00,WUHU216HW,2013-01-29 09:28:00,
2013-01-29 01:33:00,36.3,9.0,30.14,North,0,0.0,0.0,32,0.00,,,0.00,WUHU216HW,2013-01-29 09:33:00,
2013-01-29 01:38:00,37.0,11.6,30.14,North,0,0.0,0.0,35,0.00,,,0.00,WUHU216HW,2013-01-29 09:38:00,
2013-01-29 01:43:00,36.6,10.6,30.14,North,0,0.0,0.0,34,0.00,,,0.00,WUHU216HW,2013-01-29 09:43:00,
2013-01-29 01:49:00,36.8,12.1,30.14,North,0,0.0,0.0,36,0.00,,,0.00,WUHU216HW,2013-01-29 09:49:00,
2013-01-29 01:54:00,37.0,12.9,30.14,North,0,0.0,0.0,37,0.00,,,0.00,WUHU216HW,2013-01-29 09:54:00,
2013-01-29 01:59:00,36.6,11.9,30.14,North,0,0.0,0.0,36,0.00,,,0.00,WUHU216HW,2013-01-29 09:59:00,
2013-01-29 02:04:00,36.3,12.3,30.14,North,0,0.0,0.0,37,0.00,,,0.00,WUHU216HW,2013-01-29 10:04:00,
2013-01-29 02:09:00,36.4,12.4,30.14,North,0,0.0,0.0,37,0.00,,,0.00,WUHU216HW,2013-01-29 10:09:00,
2013-01-29 02:14:00,36.6,12.5,30.14,North,0,0.0,0.0,37,0.00,,,0.00,WUHU216HW,2013-01-29 10:14:00,
2013-01-29 02:19:00,36.4,12.4,30.14,North,0,0.0,0.0,37,0.00,,,0.00,WUHU216HW,2013-01-29 10:19:00,
2013-01-29 02:24:00,36.4,13.0,30.14,North,0,0.0,0.0,38,0.00,,,0.00,WUHU216HW,2013-01-29 10:24:00,
2013-01-29 02:29:00,36.1,11.5,30.13,North,0,0.0,0.0,36,0.00,,,0.00,WUHU216HW,2013-01-29 10:29:00,
2013-01-29 02:34:00,35.9,10.0,30.14,North,0,0.0,0.0,34,0.00,,,0.00,WUHU216HW,2013-01-29 10:34:00,
2013-01-29 02:39:00,35.7,10.5,30.13,North,0,0.0,0.0,35,0.00,,,0.00,WUHU216HW,2013-01-29 10:39:00,
2013-01-29 02:45:00,35.9,10.7,30.14,North,0,0.0,0.0,35,0.00,,,0.00,WUHU216HW,2013-01-29 10:45:00,
2013-01-29 02:50:00,35.5,10.3,30.14,North,0,0.0,0.0,35,0.00,,,0.00,WUHU216HW,2013-01-29 10:50:00,
2013-01-29 02:55:00,35.5,9.0,30.14,North,0,0.0,0.0,33,0.00,,,0.00,WUHU216HW,2013-01-29 10:55:00,
2013-01-29 03:00:00,35.2,7.4,30.14,North,0,0.0,0.0,31,0.00,,,0.00,WUHU216HW,2013-01-29 11:00:00,
2013-01-29 03:05:00,35.0,7.2,30.14,North,0,0.0,0.0,31,0.00,,,0.00,WUHU216HW,2013-01-29 11:05:00,
2013-01-29 03:10:00,35.2,8.1,30.15,North,0,0.0,0.0,32,0.00,,,0.00,WUHU216HW,2013-01-29 11:10:00,
2013-01-29 03:15:00,35.9,8.7,30.15,North,0,0.0,0.0,32,0.00,,,0.00,WUHU216HW,2013-01-29 11:15:00,
2013-01-29 03:20:00,35.7,9.2,30.14,North,0,0.0,0.0,33,0.00,,,0.00,WUHU216HW,2013-01-29 11:20:00,
2013-01-29 03:25:00,35.4,8.9,30.14,North,0,0.0,0.0,33,0.00,,,0.00,WUHU216HW,2013-01-29 11:25:00,
2013-01-29 03:30:00,35.4,8.9,30.14,North,0,0.0,0.0,33,0.00,,,0.00,WUHU216HW,2013-01-29 11:30:00,
2013-01-29 03:35:00,35.4,8.9,30.13,North,0,0.0,0.0,33,0.00,,,0.00,WUHU216HW,2013-01-29 11:35:00,
2013-01-29 03:40:00,36.2,8.9,30.13,North,0,0.0,0.0,32,0.00,,,0.00,WUHU216HW,2013-01-29 11:40:00,
2013-01-29 03:45:00,36.2,9.6,30.14,North,0,0.0,0.0,33,0.00,,,0.00,WUHU216HW,2013-01-29 11:45:00,
2013-01-29 03:50:00,36.0,10.7,30.13,North,0,0.0,0.0,35,0.00,,,0.00,WUHU216HW,2013-01-29 11:50:00,
2013-01-29 03:55:00,36.0,10.7,30.13,North,0,0.0,0.0,35,0.00,,,0.00,WUHU216HW,2013-01-29 11:55:00,
2013-01-29 04:00:00,36.0,8.7,30.14,North,0,0.0,0.0,32,0.00,,,0.00,WUHU216HW,2013-01-29 12:00:00,
2013-01-29 04:05:00,35.8,8.6,30.14,North,0,0.0,0.0,32,0.00,,,0.00,WUHU216HW,2013-01-29 12:05:00,
2013-01-29 04:10:00,35.6,7.7,30.14,North,0,0.0,0.0,31,0.00,,,0.00,WUHU216HW,2013-01-29 12:10:00,
2013-01-29 04:16:00,35.5,8.3,30.14,North,0,0.0,0.0,32,0.00,,,0.00,WUHU216HW,2013-01-29 12:16:00,
2013-01-29 04:21:00,35.1,6.6,30.14,North,0,0.0,0.0,30,0.00,,,0.00,WUHU216HW,2013-01-29 12:21:00,
2013-01-29 04:26:00,35.1,6.6,30.14,North,0,0.0,0.0,30,0.00,,,0.00,WUHU216HW,2013-01-29 12:26:00,
2013-01-29 04:31:00,35.5,7.6,30.14,North,0,0.0,0.0,31,0.00,,,0.00,WUHU216HW,2013-01-29 12:31:00,
2013-01-29 04:36:00,35.6,8.3,30.15,North,0,0.0,0.0,32,0.00,,,0.00,WUHU216HW,2013-01-29 12:36:00,
2013-01-29 04:41:00,35.7,9.1,30.15,North,0,0.0,0.0,33,0.00,,,0.00,WUHU216HW,2013-01-29 12:41:00,
2013-01-29 04:46:00,35.9,9.3,30.15,North,0,0.0,0.0,33,0.00,,,0.00,WUHU216HW,2013-01-29 12:46:00,
2013-01-29 04:51:00,35.9,11.3,30.15,North,0,0.0,0.0,36,0.00,,,0.00,WUHU216HW,2013-01-29 12:51:00,
2013-01-29 04:56:00,35.6,10.4,30.15,North,0,0.0,0.0,35,0.00,,,0.00,WUHU216HW,2013-01-29 12:56:00,
2013-01-29 05:01:00,35.6,9.7,30.15,North,0,0.0,0.0,34,0.00,,,0.00,WUHU216HW,2013-01-29 13:01:00,
2013-01-29 05:07:00,35.6,10.4,30.14,North,0,0.0,0.0,35,0.00,,,0.00,WUHU216HW,2013-01-29 13:07:00,
2013-01-29 05:12:00,35.7,9.2,30.14,North,0,0.0,0.0,33,0.00,,,0.00,WUHU216HW,2013-01-29 13:12:00,
2013-01-29 05:17:00,35.5,8.3,30.14,North,0,0.0,0.0,32,0.00,,,0.00,WUHU216HW,2013-01-29 13:17:00,
2013-01-29 05:22:00,34.9,7.7,30.14,North,0,0.0,0.0,32,0.00,,,0.00,WUHU216HW,2013-01-29 13:22:00,
2013-01-29 05:27:00,34.6,6.1,30.14,North,0,0.0,0.0,30,0.00,,,0.00,WUHU216HW,2013-01-29 13:27:00,
2013-01-29 05:32:00,34.4,7.3,30.15,North,0,0.0,0.0,32,0.00,,,0.00,WUHU216HW,2013-01-29 13:32:00,
2013-01-29 05:37:00,34.2,5.8,30.15,North,0,0.0,0.0,30,0.00,,,0.00,WUHU216HW,2013-01-29 13:37:00,
2013-01-29 05:43:00,34.0,4.1,30.15,North,0,0.0,0.0,28,0.00,,,0.00,WUHU216HW,2013-01-29 13:43:00,
2013-01-29 05:48:00,33.9,4.8,30.15,North,0,0.0,0.0,29,0.00,,,0.00,WUHU216HW,2013-01-29 13:48:00,
2013-01-29 05:54:00,34.0,4.1,30.15,North,0,0.0,0.0,28,0.00,,,0.00,WUHU216HW,2013-01-29 13:54:00,
2013-01-29 05:59:00,33.6,3.7,30.15,North,0,0.0,0.0,28,0.00,,,0.00,WUHU216HW,2013-01-29 13:59:00,
2013-01-29 06:04:00,33.4,2.8,30.15,North,0,0.0,0.0,27,0.00,,,0.00,WUHU216HW,2013-01-29 14:04:00,
2013-01-29 06:09:00,33.4,2.0,30.15,North,0,0.0,0.0,26,0.00,,,0.00,WUHU216HW,2013-01-29 14:09:00,
2013-01-29 06:14:00,33.4,2.0,30.15,North,0,0.0,0.0,26,0.00,,,0.00,WUHU216HW,2013-01-29 14:14:00,
2013-01-29 06:20:00,33.6,3.0,30.15,North,0,0.0,0.0,27,0.00,,,0.00,WUHU216HW,2013-01-29 14:20:00,
2013-01-29 06:25:00,34.1,4.1,30.15,North,0,0.0,0.0,28,0.00,,,0.00,WUHU216HW,2013-01-29 14:25:00,
2013-01-29 06:30:00,34.4,5.2,30.15,North,0,0.0,0.0,29,0.00,,,0.00,WUHU216HW,2013-01-29 14:30:00,
2013-01-29 06:35:00,34.2,7.1,30.15,North,0,0.0,0.0,32,0.00,,,0.00,WUHU216HW,2013-01-29 14:35:00,
2013-01-29 06:40:00,33.3,3.5,30.16,North,0,0.0,0.0,28,0.00,,,0.00,WUHU216HW,2013-01-29 14:40:00,
2013-01-29 06:45:00,33.2,3.4,30.15,North,0,0.0,0.0,28,0.00,,,0.00,WUHU216HW,2013-01-29 14:45:00,
2013-01-29 06:50:00,33.5,3.7,30.15,North,0,0.0,0.0,28,0.00,,,0.00,WUHU216HW,2013-01-29 14:50:00,
2013-01-29 06:55:00,33.8,3.9,30.15,North,0,0.0,0.0,28,0.00,,,0.00,WUHU216HW,2013-01-29 14:55:00,
2013-01-29 07:00:00,33.4,4.3,30.15,North,0,0.0,0.0,29,0.00,,,0.00,WUHU216HW,2013-01-29 15:00:00,
2013-01-29 07:05:00,33.3,2.7,30.15,North,0,0.0,0.0,27,0.00,,,0.00,WUHU216HW,2013-01-29 15:05:00,
2013-01-29 07:10:00,33.3,3.5,30.16,North,0,0.0,0.0,28,0.00,,,0.00,WUHU216HW,2013-01-29 15:10:00,
2013-01-29 07:15:00,33.1,2.6,30.16,North,0,0.0,0.0,27,0.00,,,0.00,WUHU216HW,2013-01-29 15:15:00,
2013-01-29 07:21:00,33.2,1.8,30.16,North,0,0.0,0.0,26,0.00,,,0.00,WUHU216HW,2013-01-29 15:21:00,
2013-01-29 07:26:00,33.0,2.4,30.16,North,0,0.0,0.0,27,0.00,,,0.00,WUHU216HW,2013-01-29 15:26:00,
2013-01-29 07:31:00,32.6,1.3,30.16,North,0,0.0,0.0,26,0.00,,,0.00,WUHU216HW,2013-01-29 15:31:00,
2013-01-29 07:36:00,32.3,-0.6,30.16,North,0,0.0,0.0,24,0.00,,,0.00,WUHU216HW,2013-01-29 15:36:00,
2013-01-29 07:41:00,32.5,-0.4,30.16,North,0,0.0,0.0,24,0.00,,,0.00,WUHU216HW,2013-01-29 15:41:00,
2013-01-29 07:46:00,32.6,-0.4,30.16,North,0,0.0,0.0,24,0.00,,,0.00,WUHU216HW,2013-01-29 15:46:00,
2013-01-29 07:51:00,32.9,-0.1,30.17,North,0,0.0,0.0,24,0.00,,,0.00,WUHU216HW,2013-01-29 15:51:00,
2013-01-29 07:56:00,32.9,-1.9,30.17,North,0,0.0,0.0,22,0.00,,,0.00,WUHU216HW,2013-01-29 15:56:00,
2013-01-29 08:01:00,33.5,0.4,30.17,North,0,0.0,0.0,24,0.00,,,0.00,WUHU216HW,2013-01-29 16:01:00,
2013-01-29 08:06:00,33.8,0.7,30.17,North,0,0.0,0.0,24,0.00,,,0.00,WUHU216HW,2013-01-29 16:06:00,
2013-01-29 08:11:00,34.1,0.9,30.17,North,0,0.0,0.0,24,0.00,,,0.00,WUHU216HW,2013-01-29 16:11:00,
2013-01-29 08:16:00,34.5,1.2,30.18,North,0,0.0,0.0,24,0.00,,,0.00,WUHU216HW,2013-01-29 16:16:00,
2013-01-29 08:21:00,34.6,1.4,30.17,North,0,0.0,0.0,24,0.00,,,0.00,WUHU216HW,2013-01-29 16:21:00,
2013-01-29 08:26:00,34.8,1.5,30.17,North,0,0.0,0.0,24,0.00,,,0.00,WUHU216HW,2013-01-29 16:26:00,
2013-01-29 08:31:00,35.5,1.3,30.18,North,0,0.0,0.0,23,0.00,,,0.00,WUHU216HW,2013-01-29 16:31:00,
2013-01-29 08:36:00,36.0,4.2,30.18,North,0,0.0,0.0,26,0.00,,,0.00,WUHU216HW,2013-01-29 16:36:00,
2013-01-29 08:41:00,36.4,2.9,30.18,North,0,0.0,0.0,24,0.00,,,0.00,WUHU216HW,2013-01-29 16:41:00,
2013-01-29 08:47:00,36.7,3.1,30.19,North,0,0.0,0.0,24,0.00,,,0.00,WUHU216HW,2013-01-29 16:47:00,
2013-01-29 08:52:00,37.1,5.2,30.18,North,0,0.0,0.0,26,0.00,,,0.00,WUHU216HW,2013-01-29 16:52:00,
2013-01-29 08:57:00,38.2,9.3,30.19,North,0,0.0,0.0,30,0.00,,,0.00,WUHU216HW,2013-01-29 16:57:00,
2013-01-29 09:02:00,39.0,12.0,30.19,North,0,0.0,0.0,33,0.00,,,0.00,WUHU216HW,2013-01-29 17:02:00,
2013-01-29 09:07:00,39.5,11.8,30.19,North,0,0.0,0.0,32,0.00,,,0.00,WUHU216HW,2013-01-29 17:07:00,
2013-01-29 09:12:00,40.2,15.1,30.19,North,0,0.0,0.0,36,0.00,,,0.00,WUHU216HW,2013-01-29 17:12:00,
2013-01-29 09:17:00,41.0,16.5,30.19,North,0,0.0,0.0,37,0.00,,,0.00,WUHU216HW,2013-01-29 17:17:00,
2013-01-29 09:22:00,41.6,17.6,30.18,North,0,0.0,0.0,38,0.00,,,0.00,WUHU216HW,2013-01-29 17:22:00,
2013-01-29 09:27:00,42.0,19.8,30.19,North,0,0.0,0.0,41,0.00,,,0.00,WUHU216HW,2013-01-29 17:27:00,
2013-01-29 09:32:00,42.5,19.7,30.19,North,0,0.0,0.0,40,0.00,,,0.00,WUHU216HW,2013-01-29 17:32:00,
2013-01-29 09:37:00,43.0,20.1,30.20,North,0,0.0,0.0,40,0.00,,,0.00,WUHU216HW,2013-01-29 17:37:00,
2013-01-29 09:42:00,43.4,23.9,30.20,North,0,0.0,0.0,46,0.00,,,0.00,WUHU216HW,2013-01-29 17:42:00,
2013-01-29 09:47:00,43.9,23.8,30.20,North,0,0.0,0.0,45,0.00,,,0.00,WUHU216HW,2013-01-29 17:47:00,
2013-01-29 09:52:00,44.0,26.0,30.20,North,0,0.0,0.0,49,0.00,,,0.00,WUHU216HW,2013-01-29 17:52:00,
2013-01-29 09:57:00,44.4,25.9,30.20,North,0,0.0,0.0,48,0.00,,,0.00,WUHU216HW,2013-01-29 17:57:00,
2013-01-29 10:02:00,44.6,26.1,30.20,North,0,0.0,0.0,48,0.00,,,0.00,WUHU216HW,2013-01-29 18:02:00,
2013-01-29 10:07:00,44.8,29.2,30.20,North,0,0.0,0.0,54,0.00,,,0.00,WUHU216HW,2013-01-29 18:07:00,
2013-01-29 10:13:00,45.0,28.9,30.20,North,0,0.0,0.0,53,0.00,,,0.00,WUHU216HW,2013-01-29 18:13:00,
2013-01-29 10:18:00,45.2,29.1,30.20,North,0,0.0,0.0,53,0.00,,,0.00,WUHU216HW,2013-01-29 18:18:00,
2013-01-29 10:23:00,45.6,29.9,30.20,North,0,0.0,0.0,54,0.00,,,0.00,WUHU216HW,2013-01-29 18:23:00,
2013-01-29 10:28:00,45.8,30.6,30.20,North,0,0.0,0.0,55,0.00,,,0.00,WUHU216HW,2013-01-29 18:28:00,
2013-01-29 10:33:00,46.3,30.1,30.20,North,0,0.0,0.0,53,0.00,,,0.00,WUHU216HW,2013-01-29 18:33:00,
2013-01-29 10:38:00,46.8,31.9,30.20,North,0,0.0,0.0,56,0.00,,,0.00,WUHU216HW,2013-01-29 18:38:00,
2013-01-29 10:43:00,47.1,32.7,30.20,North,0,0.0,0.0,57,0.00,,,0.00,WUHU216HW,2013-01-29 18:43:00,
2013-01-29 10:48:00,47.3,32.9,30.20,North,0,0.0,0.0,57,0.00,,,0.00,WUHU216HW,2013-01-29 18:48:00,
2013-01-29 10:53:00,47.5,33.1,30.21,North,0,0.0,0.0,57,0.00,,,0.00,WUHU216HW,2013-01-29 18:53:00,
2013-01-29 10:58:00,47.7,33.7,30.21,North,0,0.0,0.0,58,0.00,,,0.00,WUHU216HW,2013-01-29 18:58:00,
2013-01-29 11:03:00,48.1,33.6,30.21,North,0,0.0,0.0,57,0.00,,,0.00,WUHU216HW,2013-01-29 19:03:00,
2013-01-29 11:08:00,48.5,34.0,30.21,North,0,0.0,0.0,57,0.00,,,0.00,WUHU216HW,2013-01-29 19:08:00,
2013-01-29 11:14:00,48.8,34.3,30.21,North,0,0.0,0.0,57,0.00,,,0.00,WUHU216HW,2013-01-29 19:14:00,
2013-01-29 11:19:00,49.2,34.7,30.21,North,0,0.0,0.0,57,0.00,,,0.00,WUHU216HW,2013-01-29 19:19:00,
2013-01-29 11:24:00,49.4,34.9,30.20,North,0,0.0,0.0,57,0.00,,,0.00,WUHU216HW,2013-01-29 19:24:00,
2013-01-29 11:30:00,49.8,35.2,30.21,North,0,0.0,0.0,57,0.00,,,0.00,WUHU216HW,2013-01-29 19:30:00,
2013-01-29 11:35:00,50.0,34.9,30.20,North,0,0.0,0.0,56,0.00,,,0.00,WUHU216HW,2013-01-29 19:35:00,
2013-01-29 11:40:00,50.7,36.1,30.20,North,0,0.0,0.0,57,0.00,,,0.00,WUHU216HW,2013-01-29 19:40:00,
2013-01-29 11:45:00,51.3,36.2,30.20,North,0,0.0,0.0,56,0.00,,,0.00,WUHU216HW,2013-01-29 19:45:00,
2013-01-29 11:50:00,51.6,36.0,30.20,North,0,0.0,0.0,55,0.00,,,0.00,WUHU216HW,2013-01-29 19:50:00,
2013-01-29 11:55:00,51.8,35.7,30.19,North,0,0.0,0.0,54,0.00,,,0.00,WUHU216HW,2013-01-29 19:55:00,
2013-01-29 12:00:00,52.2,37.1,30.19,North,0,0.0,0.0,56,0.00,,,0.00,WUHU216HW,2013-01-29 20:00:00,
2013-01-29 12:01:00,52.2,37.1,30.19,North,0,0.0,0.0,56,0.00,,,0.00,WUHU216HW,2013-01-29 20:01:00,
2013-01-29 12:06:00,53.0,37.7,30.19,North,0,0.0,0.0,56,0.00,,,0.00,WUHU216HW,2013-01-29 20:06:00,
2013-01-29 12:11:00,53.2,38.0,30.19,North,0,0.0,0.0,56,0.00,,,0.00,WUHU216HW,2013-01-29 20:11:00,
2013-01-29 12:16:00,53.2,38.0,30.19,North,0,0.0,0.0,56,0.00,,,0.00,WUHU216HW,2013-01-29 20:16:00,
2013-01-29 12:21:00,53.4,38.2,30.18,North,0,0.0,0.0,56,0.00,,,0.00,WUHU216HW,2013-01-29 20:21:00,
2013-01-29 12:26:00,53.7,33.9,30.18,North,0,0.0,0.0,47,0.00,,,0.00,WUHU216HW,2013-01-29 20:26:00,
2013-01-29 12:31:00,53.9,35.2,30.18,North,0,0.0,0.0,49,0.00,,,0.00,WUHU216HW,2013-01-29 20:31:00,
2013-01-29 12:36:00,54.4,34.0,30.18,North,0,0.0,0.0,46,0.00,,,0.00,WUHU216HW,2013-01-29 20:36:00,
2013-01-29 12:42:00,54.9,36.0,30.18,North,0,0.0,0.0,49,0.00,,,0.00,WUHU216HW,2013-01-29 20:42:00,
2013-01-29 12:47:00,55.3,36.9,30.18,North,0,0.0,0.0,50,0.00,,,0.00,WUHU216HW,2013-01-29 20:47:00,
2013-01-29 12:52:00,56.0,37.6,30.17,North,0,0.0,0.0,50,0.00,,,0.00,WUHU216HW,2013-01-29 20:52:00,
2013-01-29 12:57:00,56.2,37.3,30.17,North,0,0.0,0.0,49,0.00,,,0.00,WUHU216HW,2013-01-29 20:57:00,
2013-01-29 13:02:00,56.0,37.6,30.17,North,0,0.0,0.0,50,0.00,,,0.00,WUHU216HW,2013-01-29 21:02:00,
2013-01-29 13:07:00,55.6,38.3,30.17,North,0,0.0,0.0,52,0.00,,,0.00,WUHU216HW,2013-01-29 21:07:00,
2013-01-29 13:12:00,55.1,38.8,30.17,North,0,0.0,0.0,54,0.00,,,0.00,WUHU216HW,2013-01-29 21:12:00,
2013-01-29 13:17:00,55.3,38.5,30.17,North,0,0.0,0.0,53,0.00,,,0.00,WUHU216HW,2013-01-29 21:17:00,
2013-01-29 13:22:00,55.3,38.0,30.16,North,0,0.0,0.0,52,0.00,,,0.00,WUHU216HW,2013-01-29 21:22:00,
2013-01-29 13:28:00,55.3,39.0,30.16,North,0,0.0,0.0,54,0.00,,,0.00,WUHU216HW,2013-01-29 21:28:00,
2013-01-29 13:33:00,55.3,39.5,30.16,North,0,0.0,0.0,55,0.00,,,0.00,WUHU216HW,2013-01-29 21:33:00,
2013-01-29 13:38:00,55.5,39.6,30.17,North,0,0.0,0.0,55,0.00,,,0.00,WUHU216HW,2013-01-29 21:38:00,
2013-01-29 13:43:00,55.5,39.6,30.16,North,0,0.0,0.0,55,0.00,,,0.00,WUHU216HW,2013-01-29 21:43:00,
2013-01-29 13:49:00,55.5,39.6,30.16,North,0,0.0,0.0,55,0.00,,,0.00,WUHU216HW,2013-01-29 21:49:00,
2013-01-29 13:54:00,56.1,40.2,30.16,North,0,0.0,0.0,55,0.00,,,0.00,WUHU216HW,2013-01-29 21:54:00,
2013-01-29 13:59:00,56.6,40.7,30.16,North,0,0.0,0.0,55,0.00,,,0.00,WUHU216HW,2013-01-29 21:59:00,
2013-01-29 14:04:00,56.8,40.9,30.16,North,0,0.0,0.0,55,0.00,,,0.00,WUHU216HW,2013-01-29 22:04:00,
2013-01-29 14:09:00,56.6,40.7,30.16,North,0,0.0,0.0,55,0.00,,,0.00,WUHU216HW,2013-01-29 22:09:00,
2013-01-29 14:15:00,57.0,40.6,30.16,North,0,0.0,0.0,54,0.00,,,0.00,WUHU216HW,2013-01-29 22:15:00,
2013-01-29 14:20:00,57.2,40.8,30.16,North,0,0.0,0.0,54,0.00,,,0.00,WUHU216HW,2013-01-29 22:20:00,
2013-01-29 14:25:00,56.8,40.4,30.16,North,0,0.0,0.0,54,0.00,,,0.00,WUHU216HW,2013-01-29 22:25:00,
2013-01-29 14:30:00,56.8,40.4,30.16,North,0,0.0,0.0,54,0.00,,,0.00,WUHU216HW,2013-01-29 22:30:00,
2013-01-29 14:35:00,56.8,39.9,30.16,North,0,0.0,0.0,53,0.00,,,0.00,WUHU216HW,2013-01-29 22:35:00,
2013-01-29 14:40:00,56.8,38.9,30.15,North,0,0.0,0.0,51,0.00,,,0.00,WUHU216HW,2013-01-29 22:40:00,
2013-01-29 14:46:00,57.0,37.5,30.16,North,0,0.0,0.0,48,0.00,,,0.00,WUHU216HW,2013-01-29 22:46:00,
2013-01-29 14:51:00,57.5,39.5,30.16,North,0,0.0,0.0,51,0.00,,,0.00,WUHU216HW,2013-01-29 22:51:00,
2013-01-29 14:56:00,57.7,38.6,30.16,North,0,0.0,0.0,49,0.00,,,0.00,WUHU216HW,2013-01-29 22:56:00,
2013-01-29 15:01:00,57.7,39.7,30.16,North,0,0.0,0.0,51,0.00,,,0.00,WUHU216HW,2013-01-29 23:01:00,
2013-01-29 15:06:00,58.1,38.5,30.16,North,0,0.0,0.0,48,0.00,,,0.00,WUHU216HW,2013-01-29 23:06:00,
2013-01-29 15:11:00,58.1,38.5,30.16,North,0,0.0,0.0,48,0.00,,,0.00,WUHU216HW,2013-01-29 23:11:00,
2013-01-29 15:16:00,58.2,38.0,30.16,North,0,0.0,0.0,47,0.00,,,0.00,WUHU216HW,2013-01-29 23:16:00,
2013-01-29 15:21:00,58.2,38.6,30.16,North,0,0.0,0.0,48,0.00,,,0.00,WUHU216HW,2013-01-29 23:21:00,
2013-01-29 15:26:00,58.2,38.0,30.16,North,0,0.0,0.0,47,0.00,,,0.00,WUHU216HW,2013-01-29 23:26:00,
2013-01-29 15:31:00,58.2,39.1,30.16,North,0,0.0,0.0,49,0.00,,,0.00,WUHU216HW,2013-01-29 23:31:00,
2013-01-29 15:36:00,58.2,38.0,30.15,North,0,0.0,0.0,47,0.00,,,0.00,WUHU216HW,2013-01-29 23:36:00,
2013-01-29 15:41:00,58.4,38.2,30.16,North,0,0.0,0.0,47,0.00,,,0.00,WUHU216HW,2013-01-29 23:41:00,
2013-01-29 15:46:00,59.0,38.1,30.15,North,0,0.0,0.0,46,0.00,,,0.00,WUHU216HW,2013-01-29 23:46:00,
2013-01-29 15:51:00,59.0,38.1,30.16,North,0,0.0,0.0,46,0.00,,,0.00,WUHU216HW,2013-01-29 23:51:00,
2013-01-29 15:57:00,59.0,37.6,30.15,North,0,0.0,0.0,45,0.00,,,0.00,WUHU216HW,2013-01-29 23:57:00,
2013-01-29 16:02:00,58.9,38.1,30.16,North,0,0.0,0.0,46,0.00,,,0.00,WUHU216HW,2013-01-30 00:02:00,
2013-01-29 16:07:00,58.7,37.9,30.16,North,0,0.0,0.0,46,0.00,,,0.00,WUHU216HW,2013-01-30 00:07:00,
2013-01-29 16:12:00,58.5,38.3,30.15,North,0,0.0,0.0,47,0.00,,,0.00,WUHU216HW,2013-01-30 00:12:00,
2013-01-29 16:17:00,58.3,38.1,30.16,North,0,0.0,0.0,47,0.00,,,0.00,WUHU216HW,2013-01-30 00:17:00,
2013-01-29 16:22:00,58.3,38.1,30.15,North,0,0.0,0.0,47,0.00,,,0.00,WUHU216HW,2013-01-30 00:22:00,
2013-01-29 16:27:00,58.3,38.1,30.15,North,0,0.0,0.0,47,0.00,,,0.00,WUHU216HW,2013-01-30 00:27:00,
2013-01-29 16:32:00,58.3,38.1,30.15,North,0,0.0,0.0,47,0.00,,,0.00,WUHU216HW,2013-01-30 00:32:00,
2013-01-29 16:39:00,58.7,37.3,30.15,North,0,0.0,0.0,45,0.00,,,0.00,WUHU216HW,2013-01-30 00:39:00,
2013-01-29 16:44:00,58.7,37.3,30.15,North,0,0.0,0.0,45,0.00,,,0.00,WUHU216HW,2013-01-30 00:44:00,
2013-01-29 16:50:00,58.5,37.7,30.15,North,0,0.0,0.0,46,0.00,,,0.00,WUHU216HW,2013-01-30 00:50:00,
2013-01-29 16:55:00,58.0,37.3,30.15,North,0,0.0,0.0,46,0.00,,,0.00,WUHU216HW,2013-01-30 00:55:00,
2013-01-29 17:00:00,57.9,37.2,30.15,North,0,0.0,0.0,46,0.00,,,0.00,WUHU216HW,2013-01-30 01:00:00,
2013-01-29 17:05:00,57.5,36.8,30.15,North,0,0.0,0.0,46,0.00,,,0.00,WUHU216HW,2013-01-30 01:05:00,
2013-01-29 17:10:00,57.3,37.2,30.15,North,0,0.0,0.0,47,0.00,,,0.00,WUHU216HW,2013-01-30 01:10:00,
2013-01-29 17:15:00,57.3,37.2,30.15,North,0,0.0,0.0,47,0.00,,,0.00,WUHU216HW,2013-01-30 01:15:00,
2013-01-29 17:20:00,57.0,36.9,30.15,North,0,0.0,0.0,47,0.00,,,0.00,WUHU216HW,2013-01-30 01:20:00,
2013-01-29 17:25:00,56.8,37.3,30.16,North,0,0.0,0.0,48,0.00,,,0.00,WUHU216HW,2013-01-30 01:25:00,
2013-01-29 17:30:00,56.8,36.7,30.16,North,0,0.0,0.0,47,0.00,,,0.00,WUHU216HW,2013-01-30 01:30:00,
2013-01-29 17:35:00,56.5,37.0,30.16,North,0,0.0,0.0,48,0.00,,,0.00,WUHU216HW,2013-01-30 01:35:00,
2013-01-29 17:40:00,56.5,36.5,30.16,North,0,0.0,0.0,47,0.00,,,0.00,WUHU216HW,2013-01-30 01:40:00,
2013-01-29 17:46:00,56.1,36.6,30.16,North,0,0.0,0.0,48,0.00,,,0.00,WUHU216HW,2013-01-30 01:46:00,
2013-01-29 17:51:00,56.0,36.5,30.16,North,0,0.0,0.0,48,0.00,,,0.00,WUHU216HW,2013-01-30 01:51:00,
2013-01-29 17:56:00,56.1,36.6,30.16,North,0,0.0,0.0,48,0.00,,,0.00,WUHU216HW,2013-01-30 01:56:00,
2013-01-29 18:01:00,56.5,35.9,30.16,North,0,0.0,0.0,46,0.00,,,0.00,WUHU216HW,2013-01-30 02:01:00,
2013-01-29 18:06:00,56.4,35.8,30.17,North,0,0.0,0.0,46,0.00,,,0.00,WUHU216HW,2013-01-30 02:06:00,
2013-01-29 18:11:00,56.4,35.8,30.16,North,0,0.0,0.0,46,0.00,,,0.00,WUHU216HW,2013-01-30 02:11:00,
2013-01-29 18:16:00,56.4,35.8,30.17,North,0,0.0,0.0,46,0.00,,,0.00,WUHU216HW,2013-01-30 02:16:00,
2013-01-29 18:21:00,56.2,36.2,30.17,North,0,0.0,0.0,47,0.00,,,0.00,WUHU216HW,2013-01-30 02:21:00,
2013-01-29 18:26:00,56.0,36.0,30.17,North,0,0.0,0.0,47,0.00,,,0.00,WUHU216HW,2013-01-30 02:26:00,
2013-01-29 18:31:00,56.2,36.1,30.17,North,0,0.0,0.0,47,0.00,,,0.00,WUHU216HW,2013-01-30 02:31:00,
2013-01-29 18:36:00,56.1,36.1,30.17,North,0,0.0,0.0,47,0.00,,,0.00,WUHU216HW,2013-01-30 02:36:00,
2013-01-29 18:42:00,55.9,35.9,30.17,North,0,0.0,0.0,47,0.00,,,0.00,WUHU216HW,2013-01-30 02:42:00,
2013-01-29 18:47:00,55.9,35.9,30.17,North,0,0.0,0.0,47,0.00,,,0.00,WUHU216HW,2013-01-30 02:47:00,
2013-01-29 18:52:00,55.6,36.2,30.17,North,0,0.0,0.0,48,0.00,,,0.00,WUHU216HW,2013-01-30 02:52:00,
2013-01-29 18:57:00,55.6,36.1,30.17,North,0,0.0,0.0,48,0.00,,,0.00,WUHU216HW,2013-01-30 02:57:00,
2013-01-29 19:02:00,55.1,36.3,30.18,North,0,0.0,0.0,49,0.00,,,0.00,WUHU216HW,2013-01-30 03:02:00,
2013-01-29 19:07:00,54.9,36.6,30.18,North,0,0.0,0.0,50,0.00,,,0.00,WUHU216HW,2013-01-30 03:07:00,
2013-01-29 19:12:00,54.8,36.0,30.18,North,0,0.0,0.0,49,0.00,,,0.00,WUHU216HW,2013-01-30 03:12:00,
2013-01-29 19:17:00,54.8,36.0,30.18,North,0,0.0,0.0,49,0.00,,,0.00,WUHU216HW,2013-01-30 03:17:00,
2013-01-29 19:22:00,54.8,35.9,30.18,North,0,0.0,0.0,49,0.00,,,0.00,WUHU216HW,2013-01-30 03:22:00,
2013-01-29 19:27:00,54.7,35.9,30.18,North,0,0.0,0.0,49,0.00,,,0.00,WUHU216HW,2013-01-30 03:27:00,
2013-01-29 19:32:00,54.7,36.4,30.18,North,0,0.0,0.0,50,0.00,,,0.00,WUHU216HW,2013-01-30 03:32:00,
2013-01-29 19:37:00,54.3,36.0,30.18,North,0,0.0,0.0,50,0.00,,,0.00,WUHU216HW,2013-01-30 03:37:00,
2013-01-29 19:43:00,54.1,36.3,30.18,North,0,0.0,0.0,51,0.00,,,0.00,WUHU216HW,2013-01-30 03:43:00,
2013-01-29 19:48:00,54.3,36.0,30.18,North,0,0.0,0.0,50,0.00,,,0.00,WUHU216HW,2013-01-30 03:48:00,
2013-01-29 19:53:00,54.6,36.3,30.18,North,0,0.0,0.0,50,0.00,,,0.00,WUHU216HW,2013-01-30 03:53:00,
2013-01-29 19:58:00,54.7,36.4,30.19,North,0,0.0,0.0,50,0.00,,,0.00,WUHU216HW,2013-01-30 03:58:00,
2013-01-29 20:03:00,54.8,36.5,30.18,North,0,0.0,0.0,50,0.00,,,0.00,WUHU216HW,2013-01-30 04:03:00,
2013-01-29 20:08:00,55.0,36.7,30.18,North,0,0.0,0.0,50,0.00,,,0.00,WUHU216HW,2013-01-30 04:08:00,
2013-01-29 20:13:00,55.3,37.0,30.19,North,0,0.0,0.0,50,0.00,,,0.00,WUHU216HW,2013-01-30 04:13:00,
2013-01-29 20:18:00,55.3,37.0,30.19,North,0,0.0,0.0,50,0.00,,,0.00,WUHU216HW,2013-01-30 04:18:00,
2013-01-29 20:23:00,55.4,37.0,30.19,North,0,0.0,0.0,50,0.00,,,0.00,WUHU216HW,2013-01-30 04:23:00,
2013-01-29 20:28:00,55.2,36.9,30.19,North,0,0.0,0.0,50,0.00,,,0.00,WUHU216HW,2013-01-30 04:28:00,
2013-01-29 20:34:00,55.0,36.7,30.19,North,0,0.0,0.0,50,0.00,,,0.00,WUHU216HW,2013-01-30 04:34:00,
2013-01-29 20:39:00,54.5,36.2,30.19,North,0,0.0,0.0,50,0.00,,,0.00,WUHU216HW,2013-01-30 04:39:00,
2013-01-29 20:44:00,54.3,36.5,30.20,North,0,0.0,0.0,51,0.00,,,0.00,WUHU216HW,2013-01-30 04:44:00,
2013-01-29 20:49:00,54.2,36.4,30.20,North,0,0.0,0.0,51,0.00,,,0.00,WUHU216HW,2013-01-30 04:49:00,
2013-01-29 20:54:00,54.1,36.4,30.20,North,0,0.0,0.0,51,0.00,,,0.00,WUHU216HW,2013-01-30 04:54:00,
2013-01-29 20:59:00,54.1,36.4,30.20,North,0,0.0,0.0,51,0.00,,,0.00,WUHU216HW,2013-01-30 04:59:00,
2013-01-29 21:01:00,53.9,36.7,30.20,North,0,0.0,0.0,52,0.00,,,0.00,WUHU216HW,2013-01-30 05:01:00,
2013-01-29 21:02:00,54.1,36.4,30.20,North,0,0.0,0.0,51,0.00,,,0.00,WUHU216HW,2013-01-30 05:02:00,
2013-01-29 21:03:00,53.9,36.7,30.20,North,0,0.0,0.0,52,0.00,,,0.00,WUHU216HW,2013-01-30 05:03:00,
2013-01-29 21:04:00,53.9,36.7,30.20,North,0,0.0,0.0,52,0.00,,,0.00,WUHU216HW,2013-01-30 05:04:00,
2013-01-29 21:09:00,53.7,36.5,30.20,North,0,0.0,0.0,52,0.00,,,0.00,WUHU216HW,2013-01-30 05:09:00,
2013-01-29 21:14:00,53.3,36.6,30.20,North,0,0.0,0.0,53,0.00,,,0.00,WUHU216HW,2013-01-30 05:14:00,
2013-01-29 21:19:00,53.2,36.6,30.20,North,0,0.0,0.0,53,0.00,,,0.00,WUHU216HW,2013-01-30 05:19:00,
2013-01-29 21:24:00,53.4,36.2,30.20,North,0,0.0,0.0,52,0.00,,,0.00,WUHU216HW,2013-01-30 05:24:00,
2013-01-29 21:29:00,54.1,36.9,30.20,North,0,0.0,0.0,52,0.00,,,0.00,WUHU216HW,2013-01-30 05:29:00,
2013-01-29 21:35:00,54.0,36.3,30.20,North,0,0.0,0.0,51,0.00,,,0.00,WUHU216HW,2013-01-30 05:35:00,
2013-01-29 21:40:00,54.0,36.7,30.20,North,0,0.0,0.0,52,0.00,,,0.00,WUHU216HW,2013-01-30 05:40:00,
2013-01-29 21:45:00,54.0,36.3,30.20,North,0,0.0,0.0,51,0.00,,,0.00,WUHU216HW,2013-01-30 05:45:00,
2013-01-29 21:50:00,54.2,36.5,30.20,North,0,0.0,0.0,51,0.00,,,0.00,WUHU216HW,2013-01-30 05:50:00,
2013-01-29 21:56:00,54.2,36.5,30.20,North,0,0.0,0.0,51,0.00,,,0.00,WUHU216HW,2013-01-30 05:56:00,
2013-01-29 22:01:00,53.9,36.2,30.20,North,0,0.0,0.0,51,0.00,,,0.00,WUHU216HW,2013-01-30 06:01:00,
2013-01-29 22:06:00,54.0,36.2,30.20,North,0,0.0,0.0,51,0.00,,,0.00,WUHU216HW,2013-01-30 06:06:00,
2013-01-29 22:11:00,54.2,35.9,30.20,North,0,0.0,0.0,50,0.00,,,0.00,WUHU216HW,2013-01-30 06:11:00,
2013-01-29 22:16:00,54.1,36.4,30.20,North,0,0.0,0.0,51,0.00,,,0.00,WUHU216HW,2013-01-30 06:16:00,
2013-01-29 22:21:00,54.3,36.1,30.20,North,0,0.0,0.0,50,0.00,,,0.00,WUHU216HW,2013-01-30 06:21:00,
2013-01-29 22:27:00,54.5,36.2,30.20,North,0,0.0,0.0,50,0.00,,,0.00,WUHU216HW,2013-01-30 06:27:00,
2013-01-29 22:32:00,54.3,36.5,30.20,North,0,0.0,0.0,51,0.00,,,0.00,WUHU216HW,2013-01-30 06:32:00,
2013-01-29 22:38:00,54.1,36.3,30.20,North,0,0.0,0.0,51,0.00,,,0.00,WUHU216HW,2013-01-30 06:38:00,
2013-01-29 22:43:00,54.0,36.3,30.20,North,0,0.0,0.0,51,0.00,,,0.00,WUHU216HW,2013-01-30 06:43:00,
2013-01-29 22:50:00,54.0,36.3,30.20,North,0,0.0,0.0,51,0.00,,,0.00,WUHU216HW,2013-01-30 06:50:00,
2013-01-29 22:55:00,54.0,36.3,30.20,North,0,0.0,0.0,51,0.00,,,0.00,WUHU216HW,2013-01-30 06:55:00,
2013-01-29 23:00:00,54.0,36.3,30.20,North,0,0.0,0.0,51,0.00,,,0.00,WUHU216HW,2013-01-30 07:00:00,
2013-01-29 23:05:00,54.2,36.4,30.20,North,0,0.0,0.0,51,0.00,,,0.00,WUHU216HW,2013-01-30 07:05:00,
2013-01-29 23:10:00,54.0,35.7,30.20,North,0,0.0,0.0,50,0.00,,,0.00,WUHU216HW,2013-01-30 07:10:00,
2013-01-29 23:15:00,54.0,36.2,30.20,North,0,0.0,0.0,51,0.00,,,0.00,WUHU216HW,2013-01-30 07:15:00,
2013-01-29 23:20:00,53.9,36.2,30.20,North,0,0.0,0.0,51,0.00,,,0.00,WUHU216HW,2013-01-30 07:20:00,
2013-01-29 23:25:00,54.3,36.6,30.20,North,0,0.0,0.0,51,0.00,,,0.00,WUHU216HW,2013-01-30 07:25:00,
2013-01-29 23:31:00,54.3,36.1,30.20,North,0,0.0,0.0,50,0.00,,,0.00,WUHU216HW,2013-01-30 07:31:00,
2013-01-29 23:36:00,54.3,36.0,30.20,North,0,0.0,0.0,50,0.00,,,0.00,WUHU216HW,2013-01-30 07:36:00,
2013-01-29 23:42:00,54.1,36.4,30.20,North,0,0.0,0.0,51,0.00,,,0.00,WUHU216HW,2013-01-30 07:42:00,
2013-01-29 23:47:00,54.1,36.3,30.20,North,0,0.0,0.0,51,0.00,,,0.00,WUHU216HW,2013-01-30 07:47:00,
2013-01-29 23:52:00,53.7,36.0,30.20,North,0,0.0,0.0,51,0.00,,,0.00,WUHU216HW,2013-01-30 07:52:00,
2013-01-29 23:57:00,53.9,36.1,30.21,North,0,0.0,0.0,51,0.00,,,0.00,WUHU216HW,2013-01-30 07:57:00,